createdAt,value
2022-12-22T05:00:29.188Z,6.50
2022-12-22T05:11:34.025Z,1.30
2022-12-22T05:22:33.918Z,4.00
2022-12-22T05:33:33.786Z,1.10
2022-12-22T05:44:33.656Z,1.00
2022-12-22T05:55:33.548Z,1.80
2022-12-22T06:06:33.402Z,1.80
2022-12-22T06:17:34.913Z,2.50
2022-12-22T06:28:33.171Z,2.20
2022-12-22T06:39:33.046Z,2.20
2022-12-22T06:50:32.899Z,11.30
2022-12-22T07:01:32.949Z,7.40
2022-12-22T07:12:32.652Z,4.10
2022-12-22T07:23:32.553Z,3.50
2022-12-22T07:34:32.407Z,5.70
2022-12-22T07:45:32.283Z,6.30
2022-12-22T07:56:32.165Z,11.10
2022-12-22T08:07:32.031Z,10.90
2022-12-22T08:18:31.920Z,5.10
2022-12-22T08:29:31.853Z,5.20
2022-12-22T08:40:31.714Z,10.50
2022-12-22T08:51:31.524Z,4.20
2022-12-22T09:02:31.491Z,3.00
2022-12-22T09:13:31.269Z,8.50
2022-12-22T09:24:31.210Z,6.80
2022-12-22T09:35:31.044Z,4.50
2022-12-22T09:46:31.058Z,6.50
2022-12-22T09:57:30.777Z,3.10
2022-12-22T10:08:30.815Z,2.10
2022-12-22T10:19:30.527Z,1.60
2022-12-22T10:30:30.402Z,1.30
2022-12-22T10:41:30.291Z,10.20
2022-12-22T10:52:32.317Z,9.00
2022-12-22T11:03:30.325Z,2.20
2022-12-22T11:14:29.934Z,0.50
2022-12-22T11:25:29.781Z,1.40
2022-12-22T11:36:29.804Z,0.60
2022-12-22T11:47:29.528Z,1.00
2022-12-22T11:58:29.405Z,0.50
2022-12-22T12:09:29.309Z,1.40
2022-12-22T12:20:29.153Z,0.90
2022-12-22T12:31:30.141Z,0.30
2022-12-22T12:42:28.945Z,0.40
2022-12-22T12:53:28.795Z,1.00
2022-12-22T13:04:29.777Z,0.70
2022-12-22T13:15:28.527Z,0.80
2022-12-22T13:26:28.677Z,1.40
2022-12-22T13:37:28.288Z,0.70
2022-12-22T13:48:28.157Z,0.40
2022-12-22T13:59:28.066Z,0.60
2022-12-22T14:10:27.921Z,1.20
2022-12-22T14:21:27.836Z,0.70
2022-12-22T14:32:28.694Z,2.20
2022-12-22T14:43:27.563Z,1.00
2022-12-22T14:54:27.403Z,1.30
2022-12-22T15:05:27.287Z,0.60
2022-12-22T15:16:28.012Z,6.90
2022-12-22T15:27:27.028Z,1.60
2022-12-22T15:38:26.906Z,1.50
2022-12-22T15:49:26.807Z,3.80
2022-12-22T16:00:26.664Z,5.30
2022-12-22T16:11:26.538Z,9.30
2022-12-22T16:22:26.406Z,4.70
2022-12-22T16:33:26.283Z,6.60
2022-12-22T16:43:51.034Z,17.00
2022-12-22T16:54:34.893Z,10.30
2022-12-22T17:05:40.298Z,8.30
2022-12-22T17:16:34.712Z,12.50
2022-12-22T17:27:34.534Z,13.40
2022-12-22T17:38:34.435Z,6.70
2022-12-22T17:49:34.271Z,21.80
2022-12-22T18:00:34.171Z,18.20
2022-12-22T18:11:34.069Z,12.90
2022-12-22T18:22:33.916Z,8.50
2022-12-22T18:33:33.793Z,18.70
2022-12-22T18:44:33.662Z,18.10
2022-12-22T18:55:33.565Z,6.60
2022-12-22T19:06:33.421Z,14.60
2022-12-22T19:17:33.281Z,9.50
2022-12-22T19:28:33.902Z,26.80
2022-12-22T19:39:33.038Z,14.10
2022-12-22T19:50:32.985Z,10.10
2022-12-22T20:01:32.947Z,13.80
2022-12-22T20:12:32.666Z,7.30
2022-12-22T20:23:32.540Z,18.80
2022-12-22T20:34:32.452Z,16.50
2022-12-22T20:45:32.361Z,7.10
2022-12-22T20:56:32.178Z,9.30
2022-12-22T21:07:32.042Z,6.60
2022-12-22T21:18:31.915Z,3.70
2022-12-22T21:29:31.809Z,9.50
2022-12-22T21:40:31.662Z,7.10
2022-12-22T21:51:31.569Z,5.90
